createdAt,value
2023-01-22T00:01:19.744Z,30.60
2023-01-22T00:03:49.707Z,31.90
2023-01-22T00:06:17.910Z,29.40
2023-01-22T00:08:48.187Z,30.70
2023-01-22T00:11:18.055Z,28.80
2023-01-22T00:13:46.435Z,30.90
2023-01-22T00:16:17.060Z,29.20
2023-01-22T00:18:45.181Z,24.00
2023-01-22T00:21:13.631Z,24.80
2023-01-22T00:23:41.708Z,23.30
2023-01-22T00:26:16.620Z,22.70
2023-01-22T00:28:45.584Z,23.90
2023-01-22T00:31:15.736Z,22.90
2023-01-22T00:33:45.232Z,21.70
2023-01-22T00:36:19.443Z,22.20
2023-01-22T00:38:50.438Z,21.80
2023-01-22T00:41:19.655Z,23.10
2023-01-22T00:43:50.025Z,22.60
2023-01-22T00:46:19.270Z,23.40
2023-01-22T00:48:51.249Z,20.80
2023-01-22T00:51:22.142Z,20.80
2023-01-22T00:53:50.136Z,21.80
2023-01-22T00:56:18.334Z,21.40
2023-01-22T00:58:46.439Z,21.60
2023-01-22T01:01:15.811Z,22.00
2023-01-22T01:03:44.434Z,20.90
2023-01-22T01:06:19.864Z,17.90
2023-01-22T01:08:49.839Z,16.70
2023-01-22T01:11:22.239Z,16.00
2023-01-22T01:13:52.227Z,13.10
2023-01-22T01:16:32.786Z,14.20
2023-01-22T01:19:08.201Z,13.00
2023-01-22T01:21:36.711Z,15.70
2023-01-22T01:24:05.849Z,16.80
2023-01-22T01:26:35.462Z,15.90
2023-01-22T01:29:04.862Z,15.30
2023-01-22T01:31:32.987Z,14.90
2023-01-22T01:34:00.985Z,15.70
2023-01-22T01:36:47.724Z,14.60
2023-01-22T01:39:19.127Z,16.20
2023-01-22T01:41:48.359Z,15.40
2023-01-22T01:44:20.137Z,15.20
2023-01-22T01:46:55.615Z,15.20
2023-01-22T01:49:36.675Z,14.60
2023-01-22T01:52:13.214Z,15.10
2023-01-22T01:54:45.194Z,14.60
2023-01-22T01:57:16.943Z,16.40
2023-01-22T01:59:46.734Z,16.30
2023-01-22T02:02:16.123Z,16.80
2023-01-22T02:04:44.539Z,16.50
2023-01-22T02:07:12.667Z,17.00
2023-01-22T02:09:40.862Z,18.70
2023-01-22T02:12:09.745Z,18.50
2023-01-22T02:14:41.835Z,17.00
2023-01-22T02:17:18.077Z,17.90
2023-01-22T02:19:46.051Z,18.10
2023-01-22T02:22:20.187Z,17.20
2023-01-22T02:24:49.293Z,16.40
2023-01-22T02:27:18.352Z,16.80
2023-01-22T02:29:47.344Z,16.60
2023-01-22T02:32:15.323Z,18.00
2023-01-22T02:34:44.405Z,17.60
2023-01-22T02:37:12.718Z,17.60
2023-01-22T02:39:41.198Z,17.60
2023-01-22T02:42:09.945Z,18.10
2023-01-22T02:44:38.436Z,17.80
2023-01-22T02:47:07.501Z,17.20
2023-01-22T02:49:35.718Z,17.40
2023-01-22T02:52:04.285Z,16.10
2023-01-22T02:54:32.820Z,18.60
2023-01-22T02:57:01.086Z,18.10
2023-01-22T02:59:29.728Z,18.30
2023-01-22T03:01:58.315Z,19.50
2023-01-22T03:04:28.972Z,16.90
2023-01-22T03:06:57.018Z,17.80
2023-01-22T03:09:26.018Z,18.00
2023-01-22T03:11:54.161Z,21.00
2023-01-22T03:14:47.047Z,20.90
2023-01-22T03:17:34.671Z,22.80
2023-01-22T03:20:21.596Z,22.50
2023-01-22T03:22:49.593Z,24.00
2023-01-22T03:25:17.605Z,24.00
2023-01-22T03:28:04.613Z,24.50
2023-01-22T03:30:35.082Z,23.70
2023-01-22T03:33:04.100Z,24.70
2023-01-22T03:35:32.180Z,26.60
2023-01-22T03:38:05.992Z,26.20
2023-01-22T03:40:35.492Z,26.30
2023-01-22T03:43:03.634Z,27.00
2023-01-22T03:45:35.023Z,27.10
2023-01-22T03:48:05.030Z,26.60
2023-01-22T03:50:38.943Z,27.10
2023-01-22T03:53:07.158Z,27.70
2023-01-22T03:55:35.233Z,27.90
2023-01-22T03:58:03.745Z,24.40
2023-01-22T04:00:32.412Z,25.70
2023-01-22T04:03:03.207Z,24.90
2023-01-22T04:05:31.692Z,25.20
2023-01-22T04:07:59.846Z,25.00
2023-01-22T04:10:30.597Z,25.50
2023-01-22T04:13:00.431Z,24.80
2023-01-22T04:15:28.912Z,26.50
2023-01-22T04:17:57.808Z,27.60
2023-01-22T04:20:33.391Z,27.60
2023-01-22T04:23:21.460Z,24.10
2023-01-22T04:25:51.650Z,23.00
2023-01-22T04:28:20.955Z,20.70
2023-01-22T04:30:54.851Z,20.70
2023-01-22T04:33:34.282Z,19.40
2023-01-22T04:38:38.124Z,18.60
2023-01-22T04:41:08.717Z,18.60
2023-01-22T04:43:36.742Z,18.60
2023-01-22T04:46:04.925Z,19.00
2023-01-22T04:48:34.366Z,19.50
2023-01-22T04:51:02.486Z,20.20
2023-01-22T04:53:32.297Z,21.50
2023-01-22T04:56:00.916Z,24.00
2023-01-22T04:58:29.126Z,23.80
2023-01-22T05:00:59.691Z,26.70
2023-01-22T05:03:28.757Z,27.10
2023-01-22T05:05:57.115Z,27.90
2023-01-22T05:08:25.329Z,28.60
2023-01-22T05:10:53.339Z,26.30
2023-01-22T05:13:26.586Z,24.00
2023-01-22T05:15:57.267Z,23.30
2023-01-22T05:18:28.568Z,25.10
2023-01-22T05:20:56.616Z,23.20
2023-01-22T05:23:27.821Z,22.20
2023-01-22T05:25:56.497Z,22.40
2023-01-22T05:28:54.484Z,21.70
2023-01-22T05:31:37.635Z,21.60
2023-01-22T05:34:08.602Z,21.20
2023-01-22T05:36:36.658Z,21.10
2023-01-22T05:39:10.561Z,20.40
2023-01-22T05:41:38.721Z,20.30
2023-01-22T05:44:07.499Z,21.70
2023-01-22T05:46:35.549Z,20.90
2023-01-22T05:49:28.479Z,20.90
2023-01-22T05:51:58.113Z,20.50
2023-01-22T05:54:26.578Z,20.00
2023-01-22T05:56:54.904Z,19.10
2023-01-22T05:59:24.464Z,20.20
2023-01-22T06:01:57.307Z,20.40
2023-01-22T06:04:25.495Z,24.60
2023-01-22T06:06:53.661Z,20.70
2023-01-22T06:09:22.719Z,22.00
2023-01-22T06:11:51.241Z,22.50
2023-01-22T06:14:20.139Z,20.70
2023-01-22T06:16:49.692Z,22.10
2023-01-22T06:19:46.982Z,20.90
2023-01-22T06:22:16.758Z,18.80
2023-01-22T06:24:57.532Z,19.30
2023-01-22T06:27:28.275Z,20.40
2023-01-22T06:30:00.042Z,19.20
2023-01-22T06:32:28.542Z,20.20
2023-01-22T06:34:56.597Z,20.40
2023-01-22T06:37:24.610Z,21.60
2023-01-22T06:39:53.238Z,22.60
2023-01-22T06:42:41.477Z,28.90
2023-01-22T06:45:09.887Z,30.50
2023-01-22T06:47:43.675Z,31.30
2023-01-22T06:50:13.715Z,30.00
2023-01-22T06:52:41.867Z,28.70
2023-01-22T06:55:10.367Z,30.60
2023-01-22T06:57:39.657Z,29.50
2023-01-22T07:00:08.660Z,29.00
2023-01-22T07:02:36.653Z,27.70
2023-01-22T07:05:05.187Z,26.80
2023-01-22T07:07:33.175Z,28.20
2023-01-22T07:10:01.930Z,28.10
2023-01-22T07:12:30.041Z,27.70
2023-01-22T07:14:58.352Z,27.50
2023-01-22T07:17:26.321Z,29.10
2023-01-22T07:19:54.646Z,28.20
2023-01-22T07:22:22.806Z,24.30
2023-01-22T07:24:50.881Z,26.40
2023-01-22T07:27:18.851Z,25.00
2023-01-22T07:29:47.932Z,27.20
2023-01-22T07:32:16.921Z,25.60
2023-01-22T07:34:45.793Z,26.40
2023-01-22T07:37:13.931Z,23.70
2023-01-22T07:39:41.974Z,23.20
2023-01-22T07:42:10.107Z,23.20
2023-01-22T07:44:40.483Z,19.40
2023-01-22T07:47:09.305Z,22.00
2023-01-22T07:49:37.331Z,21.80
2023-01-22T07:52:07.274Z,19.20
2023-01-22T07:54:36.595Z,22.60
2023-01-22T07:57:05.155Z,24.00
2023-01-22T07:59:35.472Z,24.10
2023-01-22T08:02:04.510Z,22.70
2023-01-22T08:04:32.495Z,23.40
2023-01-22T08:07:00.388Z,23.60
2023-01-22T08:09:28.317Z,23.40
2023-01-22T08:11:56.275Z,21.20
2023-01-22T08:14:27.204Z,22.00
2023-01-22T08:16:56.094Z,23.10
2023-01-22T08:19:24.155Z,22.70
2023-01-22T08:21:52.968Z,20.70
2023-01-22T08:24:21.854Z,21.00
2023-01-22T08:26:49.920Z,24.00
2023-01-22T08:29:22.319Z,26.10
2023-01-22T08:31:51.359Z,24.70
2023-01-22T08:34:20.760Z,26.40
2023-01-22T08:36:48.790Z,23.40
2023-01-22T08:39:16.828Z,23.90
2023-01-22T08:41:45.212Z,27.20
2023-01-22T08:44:13.973Z,24.50
2023-01-22T08:46:42.252Z,26.70
2023-01-22T08:49:11.441Z,25.50
2023-01-22T08:51:39.608Z,24.40
2023-01-22T08:54:08.641Z,24.00
2023-01-22T08:56:36.719Z,23.60
2023-01-22T08:59:06.865Z,24.30
2023-01-22T09:01:35.437Z,24.40
2023-01-22T09:04:07.042Z,25.50
2023-01-22T09:06:36.153Z,26.10
2023-01-22T09:09:06.251Z,24.30
2023-01-22T09:11:34.229Z,20.70
2023-01-22T09:14:02.722Z,19.70
2023-01-22T09:16:33.271Z,19.30
2023-01-22T09:19:01.466Z,19.10
2023-01-22T09:21:29.638Z,18.90
2023-01-22T09:23:57.571Z,18.20
2023-01-22T09:26:25.799Z,18.30
2023-01-22T09:28:53.791Z,18.90
2023-01-22T09:31:22.111Z,17.80
2023-01-22T09:33:51.283Z,18.80
2023-01-22T09:36:19.636Z,19.20
2023-01-22T09:38:48.270Z,19.90
2023-01-22T09:41:36.615Z,18.40
2023-01-22T09:44:32.142Z,18.60
2023-01-22T09:47:07.891Z,18.30
2023-01-22T09:49:52.492Z,18.00
2023-01-22T09:52:24.897Z,18.00
2023-01-22T09:54:54.278Z,16.90
2023-01-22T09:57:31.361Z,15.70
2023-01-22T10:00:00.398Z,15.80
2023-01-22T10:02:37.146Z,16.10
2023-01-22T10:05:40.199Z,15.20
2023-01-22T10:08:26.043Z,14.40
2023-01-22T10:10:54.107Z,13.50
2023-01-22T10:13:27.638Z,14.80
2023-01-22T10:15:56.569Z,14.40
2023-01-22T10:18:40.770Z,15.60
2023-01-22T10:21:28.493Z,15.30
2023-01-22T10:23:58.307Z,15.40
2023-01-22T10:26:35.908Z,16.40
2023-01-22T10:29:10.197Z,16.10
2023-01-22T10:31:45.532Z,15.20
2023-01-22T10:34:28.305Z,18.10
2023-01-22T10:37:04.299Z,16.70
2023-01-22T10:39:43.913Z,18.20
2023-01-22T10:42:20.695Z,19.90
2023-01-22T10:44:49.653Z,21.40
2023-01-22T10:47:21.191Z,22.70
2023-01-22T10:50:04.011Z,22.50
2023-01-22T10:52:41.574Z,22.10
2023-01-22T10:55:33.053Z,22.00
2023-01-22T10:58:06.420Z,22.30
2023-01-22T11:00:50.528Z,22.70
2023-01-22T11:03:28.458Z,19.90
2023-01-22T11:06:22.739Z,24.60
2023-01-22T11:09:40.725Z,18.30
2023-01-22T11:12:23.523Z,16.80
2023-01-22T11:15:21.282Z,16.10
2023-01-22T11:17:56.828Z,14.90
2023-01-22T11:20:30.735Z,15.80
2023-01-22T11:23:11.508Z,14.80
2023-01-22T11:26:05.920Z,15.50
2023-01-22T11:29:04.830Z,15.40
2023-01-22T11:31:59.906Z,15.60
2023-01-22T11:34:56.334Z,16.20
2023-01-22T11:38:08.319Z,17.10
2023-01-22T11:41:01.720Z,15.30
2023-01-22T11:43:57.361Z,16.50
2023-01-22T11:46:59.555Z,19.40
2023-01-22T11:49:52.890Z,18.40
2023-01-22T11:52:51.268Z,18.90
2023-01-22T11:56:03.878Z,19.00
2023-01-22T11:59:09.090Z,19.10
2023-01-22T12:01:37.128Z,19.40
2023-01-22T12:04:46.573Z,18.90
2023-01-22T12:07:20.548Z,18.80
2023-01-22T12:09:48.452Z,21.20
2023-01-22T12:12:28.050Z,20.50
2023-01-22T12:15:17.718Z,24.70
2023-01-22T12:17:54.515Z,27.00
2023-01-22T12:20:34.935Z,21.90
2023-01-22T12:23:11.749Z,21.40
2023-01-22T12:25:54.445Z,22.00
2023-01-22T12:28:33.916Z,20.30
2023-01-22T12:31:24.395Z,19.70
2023-01-22T12:33:54.134Z,19.40
2023-01-22T12:36:25.815Z,18.50
2023-01-22T12:38:57.582Z,17.40
2023-01-22T12:41:57.861Z,18.40
2023-01-22T12:44:45.876Z,17.60
2023-01-22T12:47:16.841Z,16.80
2023-01-22T12:49:50.355Z,17.80
2023-01-22T12:52:28.458Z,17.00
2023-01-22T12:54:56.809Z,16.20
2023-01-22T12:57:37.102Z,17.30
2023-01-22T13:00:23.785Z,17.80
2023-01-22T13:02:52.194Z,15.40
2023-01-22T13:05:38.488Z,15.40
2023-01-22T13:08:21.792Z,15.40
2023-01-22T13:10:55.620Z,16.00
2023-01-22T13:14:03.156Z,15.20
2023-01-22T13:16:39.365Z,14.30
2023-01-22T13:19:27.536Z,14.30
2023-01-22T13:22:00.848Z,14.30
2023-01-22T13:24:29.587Z,15.10
2023-01-22T13:27:00.869Z,14.90
2023-01-22T13:29:37.081Z,15.40
2023-01-22T13:32:17.041Z,14.90
2023-01-22T13:34:45.165Z,13.70
2023-01-22T13:37:21.255Z,15.50
2023-01-22T13:39:49.321Z,18.70
2023-01-22T13:42:19.519Z,19.70
2023-01-22T13:44:51.683Z,19.00
2023-01-22T13:47:31.745Z,18.10
2023-01-22T13:50:00.191Z,20.00
2023-01-22T13:52:29.227Z,19.60
2023-01-22T13:55:11.649Z,19.80
2023-01-22T13:57:49.145Z,20.80
2023-01-22T14:00:30.377Z,21.90
2023-01-22T14:02:59.606Z,21.60
2023-01-22T14:05:34.008Z,19.20
2023-01-22T14:08:12.582Z,19.50
2023-01-22T14:10:42.279Z,19.20
2023-01-22T14:13:13.413Z,19.40
2023-01-22T14:15:44.749Z,21.20
2023-01-22T14:18:21.212Z,20.80
2023-01-22T14:20:49.236Z,19.50
2023-01-22T14:23:17.366Z,16.90
2023-01-22T14:25:48.590Z,15.90
2023-01-22T14:28:17.366Z,15.90
2023-01-22T14:30:47.304Z,16.10
2023-01-22T14:33:23.821Z,14.90
2023-01-22T14:35:54.157Z,16.30
2023-01-22T14:38:23.948Z,14.20
2023-01-22T14:40:54.010Z,14.10
2023-01-22T14:43:22.182Z,17.00
2023-01-22T14:45:50.592Z,14.10
2023-01-22T14:48:20.907Z,14.10
2023-01-22T14:50:50.361Z,15.50
2023-01-22T14:53:19.482Z,16.20
2023-01-22T14:55:47.583Z,16.60
2023-01-22T14:58:16.347Z,17.20
2023-01-22T15:00:45.250Z,18.80
2023-01-22T15:03:13.286Z,19.10
2023-01-22T15:05:41.284Z,19.10
2023-01-22T15:08:09.397Z,19.70
2023-01-22T15:10:41.482Z,17.70
2023-01-22T15:13:10.254Z,19.00
2023-01-22T15:15:39.400Z,20.00
2023-01-22T15:18:07.356Z,19.30
2023-01-22T15:20:35.637Z,18.80
2023-01-22T15:23:05.197Z,18.50
2023-01-22T15:25:34.541Z,20.10
2023-01-22T15:28:03.587Z,19.50
2023-01-22T15:30:31.745Z,18.80
2023-01-22T15:32:59.753Z,17.70
2023-01-22T15:35:27.683Z,17.50
2023-01-22T15:37:55.639Z,18.20
2023-01-22T15:40:24.679Z,16.50
2023-01-22T15:42:52.785Z,17.20
2023-01-22T15:45:20.757Z,17.10
2023-01-22T15:47:49.851Z,17.50
2023-01-22T15:50:20.465Z,17.20
2023-01-22T15:52:54.691Z,17.10
2023-01-22T15:55:22.903Z,18.60
2023-01-22T15:57:50.871Z,18.10
2023-01-22T16:00:19.461Z,18.30
2023-01-22T16:02:47.722Z,17.90
2023-01-22T16:05:16.213Z,19.30
2023-01-22T16:07:44.223Z,17.80
2023-01-22T16:10:12.219Z,17.40
2023-01-22T16:12:41.319Z,17.00
2023-01-22T16:15:11.006Z,15.40
2023-01-22T16:17:39.193Z,15.70
2023-01-22T16:20:08.452Z,15.00
2023-01-22T16:22:36.422Z,16.00
2023-01-22T16:25:05.076Z,17.50
2023-01-22T16:27:33.167Z,17.40
2023-01-22T16:30:01.388Z,25.50
2023-01-22T16:32:29.919Z,20.70
2023-01-22T16:34:58.074Z,21.00
2023-01-22T16:37:26.212Z,20.50
2023-01-22T16:39:54.955Z,21.80
2023-01-22T16:42:23.016Z,21.80
2023-01-22T16:44:51.075Z,21.50
2023-01-22T16:47:21.688Z,21.70
2023-01-22T16:49:49.680Z,20.90
2023-01-22T16:52:22.961Z,21.00
2023-01-22T16:54:52.347Z,21.20
2023-01-22T16:57:20.457Z,22.30
2023-01-22T16:59:48.505Z,21.90
2023-01-22T17:02:19.226Z,21.00
2023-01-22T17:04:47.660Z,20.60
2023-01-22T17:07:31.963Z,20.40
2023-01-22T17:10:01.869Z,20.60
2023-01-22T17:12:30.232Z,20.60
2023-01-22T17:14:58.653Z,21.50
2023-01-22T17:17:27.069Z,21.20
2023-01-22T17:19:55.028Z,21.40
2023-01-22T17:22:24.857Z,21.10
2023-01-22T17:24:53.159Z,26.10
2023-01-22T17:27:21.628Z,21.70
2023-01-22T17:29:49.861Z,22.70
2023-01-22T17:32:18.655Z,26.80
2023-01-22T17:34:47.201Z,25.10
2023-01-22T17:37:16.472Z,27.60
2023-01-22T17:39:50.830Z,27.40
2023-01-22T17:42:19.190Z,29.80
2023-01-22T17:44:47.353Z,35.20
2023-01-22T17:47:16.675Z,36.40
2023-01-22T17:49:45.867Z,37.30
2023-01-22T17:52:17.661Z,40.50
2023-01-22T17:54:46.087Z,40.70
2023-01-22T17:57:14.005Z,41.40
2023-01-22T17:59:42.023Z,41.90
2023-01-22T18:02:11.381Z,46.90
2023-01-22T18:04:39.736Z,43.70
2023-01-22T18:07:09.067Z,41.90
2023-01-22T18:09:37.453Z,43.30
2023-01-22T18:12:05.702Z,42.30
2023-01-22T18:14:34.299Z,44.50
2023-01-22T18:17:03.911Z,43.30
2023-01-22T18:19:32.157Z,42.60
2023-01-22T18:22:00.969Z,41.40
2023-01-22T18:24:31.809Z,40.80
2023-01-22T18:27:00.088Z,42.90
2023-01-22T18:29:28.470Z,40.80
2023-01-22T18:31:56.596Z,41.70
2023-01-22T18:34:25.673Z,39.70
2023-01-22T18:36:54.376Z,39.50
2023-01-22T18:39:22.387Z,40.00
2023-01-22T18:41:51.018Z,41.80
2023-01-22T18:44:19.929Z,41.40
2023-01-22T18:46:52.324Z,42.00
2023-01-22T18:49:22.999Z,41.30
2023-01-22T18:51:55.295Z,43.40
2023-01-22T18:54:25.494Z,46.60
2023-01-22T18:56:53.547Z,47.60
2023-01-22T18:59:22.104Z,50.50
2023-01-22T19:01:51.854Z,47.20
2023-01-22T19:04:22.123Z,43.70
2023-01-22T19:06:53.707Z,39.80
2023-01-22T19:09:21.771Z,37.10
2023-01-22T19:11:52.764Z,39.30
2023-01-22T19:14:22.165Z,34.40
2023-01-22T19:16:56.064Z,32.50
2023-01-22T19:19:24.949Z,34.20
2023-01-22T19:21:55.371Z,33.60
2023-01-22T19:24:30.621Z,32.20
2023-01-22T19:26:59.414Z,31.00
2023-01-22T19:29:27.572Z,32.10
2023-01-22T19:31:57.271Z,35.70
2023-01-22T19:34:29.754Z,34.50
2023-01-22T19:37:03.067Z,34.30
2023-01-22T19:39:33.378Z,32.80
2023-01-22T19:42:05.202Z,33.60
2023-01-22T19:44:35.409Z,31.00
2023-01-22T19:47:06.042Z,32.50
2023-01-22T19:49:34.166Z,31.70
2023-01-22T19:52:02.274Z,29.00
2023-01-22T19:54:30.226Z,30.30
2023-01-22T19:56:58.362Z,31.30
2023-01-22T19:59:27.529Z,32.80
2023-01-22T20:01:55.541Z,32.80
2023-01-22T20:04:26.357Z,33.50
2023-01-22T20:07:01.952Z,31.30
2023-01-22T20:09:30.941Z,34.30
2023-01-22T20:12:01.416Z,30.20
2023-01-22T20:14:32.293Z,33.10
2023-01-22T20:17:02.379Z,31.40
2023-01-22T20:19:31.083Z,35.00
2023-01-22T20:22:02.890Z,28.10
2023-01-22T20:24:30.937Z,31.10
2023-01-22T20:26:59.127Z,30.60
2023-01-22T20:29:27.214Z,28.20
2023-01-22T20:31:59.418Z,26.70
2023-01-22T20:34:29.608Z,25.60
2023-01-22T20:36:57.910Z,27.00
2023-01-22T20:39:27.407Z,25.80
2023-01-22T20:41:56.060Z,26.20
2023-01-22T20:44:26.902Z,24.80
2023-01-22T20:46:56.721Z,26.10
2023-01-22T20:49:24.822Z,28.20
2023-01-22T20:51:53.503Z,29.30
2023-01-22T20:54:21.506Z,28.50
2023-01-22T20:56:50.412Z,30.70
2023-01-22T20:59:19.424Z,29.50
2023-01-22T21:01:48.007Z,31.10
2023-01-22T21:04:18.173Z,30.40
2023-01-22T21:06:47.516Z,29.60
2023-01-22T21:09:15.697Z,29.10
2023-01-22T21:11:46.470Z,31.60
2023-01-22T21:14:20.485Z,31.60
2023-01-22T21:16:49.170Z,31.40
2023-01-22T21:19:23.594Z,27.70
2023-01-22T21:21:52.876Z,26.70
2023-01-22T21:24:21.353Z,25.70
2023-01-22T21:26:49.877Z,23.90
2023-01-22T21:29:20.767Z,25.70
2023-01-22T21:31:51.213Z,27.20
2023-01-22T21:34:23.002Z,25.10
2023-01-22T21:36:53.878Z,24.40
2023-01-22T21:39:24.793Z,24.70
2023-01-22T21:42:13.493Z,22.40
2023-01-22T21:45:01.906Z,21.30
2023-01-22T21:47:30.423Z,19.40
2023-01-22T21:49:59.519Z,19.20
2023-01-22T21:52:27.959Z,19.20
2023-01-22T21:54:57.047Z,19.80
2023-01-22T21:57:26.037Z,19.90
2023-01-22T21:59:53.994Z,20.20
2023-01-22T22:02:22.390Z,19.20
2023-01-22T22:04:51.180Z,18.40
2023-01-22T22:07:20.268Z,18.60
2023-01-22T22:09:48.381Z,18.10
2023-01-22T22:12:16.327Z,17.20
2023-01-22T22:14:44.329Z,18.20
2023-01-22T22:17:12.363Z,19.00
2023-01-22T22:19:40.434Z,19.50
2023-01-22T22:22:08.813Z,20.40
2023-01-22T22:24:36.897Z,20.30
2023-01-22T22:27:05.051Z,20.90
2023-01-22T22:29:33.170Z,19.50
2023-01-22T22:32:01.330Z,19.80
2023-01-22T22:34:29.412Z,21.00
2023-01-22T22:36:57.684Z,20.50
2023-01-22T22:39:25.679Z,21.30
2023-01-22T22:41:53.742Z,21.50
2023-01-22T22:44:21.698Z,22.10
2023-01-22T22:46:49.909Z,21.10
2023-01-22T22:49:18.393Z,22.70
2023-01-22T22:51:46.820Z,22.90
2023-01-22T22:54:19.294Z,21.30
2023-01-22T22:56:49.180Z,19.60
2023-01-22T22:59:19.848Z,20.40
2023-01-22T23:01:49.742Z,21.60
2023-01-22T23:04:18.051Z,21.90
2023-01-22T23:06:46.926Z,20.80
2023-01-22T23:09:19.851Z,20.80
2023-01-22T23:11:52.062Z,19.80
2023-01-22T23:14:20.229Z,20.80
2023-01-22T23:16:49.224Z,20.50
2023-01-22T23:19:24.522Z,22.10
2023-01-22T23:21:55.471Z,25.10
2023-01-22T23:24:23.539Z,20.40
2023-01-22T23:26:52.687Z,24.20
2023-01-22T23:29:24.284Z,25.00
2023-01-22T23:31:53.037Z,25.00
2023-01-22T23:34:22.625Z,24.50
2023-01-22T23:36:51.373Z,25.40
2023-01-22T23:39:21.022Z,25.50
2023-01-22T23:41:49.188Z,23.60
2023-01-22T23:44:18.697Z,25.10
2023-01-22T23:46:46.772Z,24.20
2023-01-22T23:49:14.903Z,22.90
2023-01-22T23:51:44.731Z,22.50
2023-01-22T23:54:13.106Z,23.40
2023-01-22T23:56:41.100Z,23.20
2023-01-22T23:59:11.386Z,23.20
